Time;durP1;ratioP1;P1;durP2;ratioP2;P2;SDS_P1;SDS_P2;PMS_P1;PMS_P2;Temp;Humidity;BMP_temperature;BMP_pressure;BME280_temperature;BME280_humidity;BME280_pressure;Samples;Min_cycle;Max_cycle;Signal;HPM_P1;HPM_P2
2022/01/08 00:00:14;;;;;;;;;;;;;;;;;;5042102;28;19929;-93
2022/01/08 00:02:40;;;;;;;;;;;;;;;;;;5041875;28;19931;-92
2022/01/08 00:05:06;;;;;;;;;;;;;;;;;;5041451;28;19933;-92
2022/01/08 00:07:33;;;;;;;;;;;;;;;;;;5041749;28;19951;-92
2022/01/08 00:09:59;;;;;;;;;;;;;;;;;;5040359;28;19926;-92
2022/01/08 00:12:26;;;;;;;;;;;;;;;;;;5037874;28;19933;-92
2022/01/08 00:14:52;;;;;;;;;;;;;;;;;;5021346;28;19925;-92
2022/01/08 00:17:19;;;;;;;;;;;;;;;;;;5026006;28;19933;-93
2022/01/08 00:19:45;;;;;;;;;;;;;;;;;;5041815;28;19956;-92
2022/01/08 00:22:12;;;;;;;;;;;;;;;;;;5040986;28;19929;-93
2022/01/08 00:24:38;;;;;;;;;;;;;;;;;;5040438;28;19925;-92
2022/01/08 00:27:04;;;;;;;;;;;;;;;;;;5044483;28;20099;-91
2022/01/08 00:29:31;;;;;;;;;;;;;;;;;;5044448;28;19925;-91
2022/01/08 00:31:57;;;;;;;;;;;;;;;;;;5043378;28;19987;-92
2022/01/08 00:34:23;;;;;;;;;;;;;;;;;;5042996;28;19929;-92
2022/01/08 00:36:49;;;;;;;;;;;;;;;;;;5042765;28;19929;-92
2022/01/08 00:39:15;;;;;;;;;;;;;;;;;;5043719;28;19986;-92
2022/01/08 00:41:42;;;;;;;;;;;;;;;;;;5043082;28;19929;-91
2022/01/08 00:44:08;;;;;;;;;;;;;;;;;;5042635;28;19992;-91
2022/01/08 00:46:34;;;;;;;;;;;;;;;;;;5042448;28;19979;-91
2022/01/08 00:49:00;;;;;;;;;;;;;;;;;;5044373;28;19925;-92
2022/01/08 00:51:27;;;;;;;;;;;;;;;;;;5044320;28;19975;-92
2022/01/08 00:53:53;;;;;;;;;;;;;;;;;;5044553;28;19929;-92
2022/01/08 00:56:19;;;;;;;;;;;;;;;;;;5044286;28;19952;-92
2022/01/08 00:58:45;;;;;;;;;;;;;;;;;;5031074;28;19929;-91
2022/01/08 01:01:12;;;;;;;;;;;;;;;;;;5024694;28;19929;-92
2022/01/08 01:03:38;;;;;;;;;;;;;;;;;;5037248;28;19951;-92
2022/01/08 01:06:06;;;;;;;;;;;;;;;;;;5042900;28;19925;-92
2022/01/08 01:08:32;;;;;;;;;;;;;;;;;;5042878;28;19936;-93
2022/01/08 01:10:58;;;;;;;;;;;;;;;;;;5042824;28;19929;-92
2022/01/08 01:13:24;;;;;;;;;;;;;;;;;;5046771;28;19983;-92
2022/01/08 01:15:51;;;;;;;;;;;;;;;;;;5044950;28;19987;-93
2022/01/08 01:18:17;;;;;;;;;;;;;;;;;;5043789;28;19933;-92
2022/01/08 01:20:43;;;;;;;;;;;;;;;;;;5041239;28;19929;-92
2022/01/08 01:23:12;;;;;;;;;;;;;;;;;;5031714;28;19970;-92
2022/01/08 01:25:42;;;;;;;;;;;;;;;;;;5043104;28;20479;-92
2022/01/08 01:28:27;;;;;;;;;;;;;;;;;;5043448;28;19948;-93
2022/01/08 01:42:23;;;;;;;;;;;;;;;;;;5043480;28;19924;-92
2022/01/08 01:47:33;;;;;;;;;;;;;;;;;;5041893;28;20020;-92
2022/01/08 01:49:59;;;;;;;;;;;;;;;;;;5043131;28;19930;-92
2022/01/08 01:52:26;;;;;;;;;;;;;;;;;;5043031;28;19925;-92
2022/01/08 01:54:52;;;;;;;;;;;;;;;;;;5043368;28;19951;-92
2022/01/08 01:57:20;;;;;;;;;;;;;;;;;;5044820;28;19957;-92
2022/01/08 01:59:47;;;;;;;;;;;;;;;;;;5043955;28;19929;-92
2022/01/08 02:02:13;;;;;;;;;;;;;;;;;;5043546;28;19933;-93
2022/01/08 02:04:39;;;;;;;;;;;;;;;;;;5042559;28;20019;-91
2022/01/08 02:07:05;;;;;;;;;;;;;;;;;;5042686;28;19925;-92
2022/01/08 02:09:33;;;;;;;;;;;;;;;;;;5041373;28;19929;-92
2022/01/08 02:11:59;;;;;;;;;;;;;;;;;;5041681;28;19940;-93
2022/01/08 02:14:25;;;;;;;;;;;;;;;;;;5040187;28;19952;-92
2022/01/08 02:16:52;;;;;;;;;;;;;;;;;;5043348;28;19929;-92
2022/01/08 02:19:18;;;;;;;;;;;;;;;;;;5042451;28;19929;-92
2022/01/08 02:21:44;;;;;;;;;;;;;;;;;;5042826;28;19925;-92
2022/01/08 02:24:10;;;;;;;;;;;;;;;;;;5041547;28;19932;-93
2022/01/08 02:26:37;;;;;;;;;;;;;;;;;;5041827;28;19928;-92
2022/01/08 02:29:03;;;;;;;;;;;;;;;;;;5040394;28;19925;-91
2022/01/08 02:31:29;;;;;;;;;;;;;;;;;;5040538;28;19956;-91
2022/01/08 02:33:56;;;;;;;;;;;;;;;;;;5042059;28;19929;-91
2022/01/08 02:36:22;;;;;;;;;;;;;;;;;;5042902;28;19929;-91
2022/01/08 02:38:49;;;;;;;;;;;;;;;;;;5042466;28;19929;-92
2022/01/08 02:41:16;;;;;;;;;;;;;;;;;;5043922;28;19925;-92
2022/01/08 02:43:45;;;;;;;;;;;;;;;;;;5039351;28;19925;-93
2022/01/08 02:46:12;;;;;;;;;;;;;;;;;;5041710;28;20436;-94
2022/01/08 02:48:38;;;;;;;;;;;;;;;;;;5042128;28;19929;-93
2022/01/08 02:51:04;;;;;;;;;;;;;;;;;;5042424;28;19935;-94
2022/01/08 02:53:30;;;;;;;;;;;;;;;;;;5041994;28;19930;-92
2022/01/08 02:55:57;;;;;;;;;;;;;;;;;;5041180;28;19936;-92
2022/01/08 02:58:26;;;;;;;;;;;;;;;;;;5040342;28;19925;-93
2022/01/08 03:00:52;;;;;;;;;;;;;;;;;;5040692;28;19956;-91
2022/01/08 03:03:18;;;;;;;;;;;;;;;;;;5041521;28;19929;-92
2022/01/08 03:05:44;;;;;;;;;;;;;;;;;;5040803;28;19987;-92
2022/01/08 03:08:10;;;;;;;;;;;;;;;;;;5041852;28;19979;-92
2022/01/08 03:10:37;;;;;;;;;;;;;;;;;;5041794;28;19941;-92
2022/01/08 03:13:04;;;;;;;;;;;;;;;;;;5034874;28;20007;-91
2022/01/08 03:15:31;;;;;;;;;;;;;;;;;;5039235;28;19948;-92
2022/01/08 03:17:57;;;;;;;;;;;;;;;;;;5040499;28;19929;-92
2022/01/08 03:20:23;;;;;;;;;;;;;;;;;;5041373;28;19929;-92
2022/01/08 03:22:50;;;;;;;;;;;;;;;;;;5041619;28;19933;-91
2022/01/08 03:25:16;;;;;;;;;;;;;;;;;;5042236;28;19995;-93
2022/01/08 03:27:42;;;;;;;;;;;;;;;;;;5044754;28;19948;-94
2022/01/08 03:30:08;;;;;;;;;;;;;;;;;;5041487;28;20363;-93
2022/01/08 03:32:35;;;;;;;;;;;;;;;;;;5041173;28;19925;-91
2022/01/08 03:35:01;;;;;;;;;;;;;;;;;;5041784;28;19929;-93
2022/01/08 03:37:27;;;;;;;;;;;;;;;;;;5042171;28;19992;-93
2022/01/08 03:39:53;;;;;;;;;;;;;;;;;;5041054;28;19929;-92
2022/01/08 03:42:19;;;;;;;;;;;;;;;;;;5039074;28;19983;-92
2022/01/08 03:44:46;;;;;;;;;;;;;;;;;;5034086;28;19929;-93
2022/01/08 03:47:28;;;;;;;;;;;;;;;;;;5040545;28;19933;-92
2022/01/08 03:49:55;;;;;;;;;;;;;;;;;;5042205;28;19937;-93
2022/01/08 03:52:21;;;;;;;;;;;;;;;;;;5041576;28;19952;-92
2022/01/08 03:54:47;;;;;;;;;;;;;;;;;;5041125;28;19925;-92
2022/01/08 03:57:13;;;;;;;;;;;;;;;;;;5041569;28;19929;-93
2022/01/08 03:59:40;;;;;;;;;;;;;;;;;;5042505;28;19925;-91
2022/01/08 04:02:06;;;;;;;;;;;;;;;;;;5045364;28;19925;-92
2022/01/08 04:04:32;;;;;;;;;;;;;;;;;;5044143;28;19933;-92
2022/01/08 04:06:58;;;;;;;;;;;;;;;;;;5043926;28;19929;-92
2022/01/08 04:09:25;;;;;;;;;;;;;;;;;;5043908;28;19929;-93
2022/01/08 04:11:52;;;;;;;;;;;;;;;;;;5046538;28;19925;-92
2022/01/08 04:14:19;;;;;;;;;;;;;;;;;;5036661;28;19940;-91
2022/01/08 04:16:49;;;;;;;;;;;;;;;;;;5045667;28;19966;-92
2022/01/08 04:19:17;;;;;;;;;;;;;;;;;;5045395;28;20426;-92
2022/01/08 04:24:23;;;;;;;;;;;;;;;;;;5044693;28;19947;-91
2022/01/08 04:26:49;;;;;;;;;;;;;;;;;;5045382;28;19971;-93
2022/01/08 04:29:16;;;;;;;;;;;;;;;;;;5044276;28;19929;-93
2022/01/08 04:31:42;;;;;;;;;;;;;;;;;;5044617;28;19960;-92
2022/01/08 04:34:08;;;;;;;;;;;;;;;;;;5044160;28;19928;-92
2022/01/08 04:36:34;;;;;;;;;;;;;;;;;;5043764;28;19944;-92
2022/01/08 04:39:00;;;;;;;;;;;;;;;;;;5043687;28;19971;-92
2022/01/08 04:41:27;;;;;;;;;;;;;;;;;;5043627;28;19928;-92
2022/01/08 04:43:53;;;;;;;;;;;;;;;;;;5044114;28;19925;-92
2022/01/08 04:46:19;;;;;;;;;;;;;;;;;;5044291;28;19933;-91
2022/01/08 04:48:45;;;;;;;;;;;;;;;;;;5044278;28;19929;-92
2022/01/08 04:51:12;;;;;;;;;;;;;;;;;;5044672;28;19929;-92
2022/01/08 04:53:38;;;;;;;;;;;;;;;;;;5044638;28;19975;-92
2022/01/08 04:56:04;;;;;;;;;;;;;;;;;;5044588;28;19987;-92
2022/01/08 04:58:30;;;;;;;;;;;;;;;;;;5036384;28;19925;-93
2022/01/08 05:00:57;;;;;;;;;;;;;;;;;;5044121;28;19926;-93
2022/01/08 05:03:23;;;;;;;;;;;;;;;;;;5043998;28;19929;-92
2022/01/08 05:05:49;;;;;;;;;;;;;;;;;;5043571;28;19952;-93
2022/01/08 05:08:15;;;;;;;;;;;;;;;;;;5044027;28;19960;-92
2022/01/08 05:10:42;;;;;;;;;;;;;;;;;;5043882;28;19951;-92
2022/01/08 05:13:08;;;;;;;;;;;;;;;;;;5043843;28;19929;-93
2022/01/08 05:15:34;;;;;;;;;;;;;;;;;;5043983;28;19925;-92
2022/01/08 05:18:02;;;;;;;;;;;;;;;;;;5043393;28;19947;-92
2022/01/08 05:20:32;;;;;;;;;;;;;;;;;;5042259;28;19971;-93
2022/01/08 05:23:00;;;;;;;;;;;;;;;;;;5042624;28;19929;-92
2022/01/08 05:25:26;;;;;;;;;;;;;;;;;;5042950;28;19991;-92
2022/01/08 05:27:53;;;;;;;;;;;;;;;;;;5037150;28;19925;-93
2022/01/08 05:30:19;;;;;;;;;;;;;;;;;;5036694;28;19925;-93
2022/01/08 05:32:45;;;;;;;;;;;;;;;;;;5043478;28;19948;-93
2022/01/08 05:35:11;;;;;;;;;;;;;;;;;;5042313;28;19926;-92
2022/01/08 05:37:38;;;;;;;;;;;;;;;;;;5042679;28;19933;-93
2022/01/08 05:40:04;;;;;;;;;;;;;;;;;;5041276;28;19951;-91
2022/01/08 05:42:30;;;;;;;;;;;;;;;;;;5041531;28;19933;-92
2022/01/08 05:44:56;;;;;;;;;;;;;;;;;;5032403;28;19951;-91
2022/01/08 05:47:23;;;;;;;;;;;;;;;;;;5042307;28;19929;-92
2022/01/08 05:49:49;;;;;;;;;;;;;;;;;;5042409;28;19926;-92
2022/01/08 05:52:15;;;;;;;;;;;;;;;;;;5042276;28;19959;-92
2022/01/08 05:54:43;;;;;;;;;;;;;;;;;;5042021;28;19929;-91
2022/01/08 05:57:09;;;;;;;;;;;;;;;;;;5041987;28;19932;-91
2022/01/08 05:59:35;;;;;;;;;;;;;;;;;;5042896;28;19925;-91
2022/01/08 06:02:02;;;;;;;;;;;;;;;;;;5042700;28;19971;-92
2022/01/08 06:04:28;;;;;;;;;;;;;;;;;;5042413;28;19928;-91
2022/01/08 06:06:54;;;;;;;;;;;;;;;;;;5042445;28;20035;-92
2022/01/08 06:09:20;;;;;;;;;;;;;;;;;;5042831;28;19929;-91
2022/01/08 06:11:47;;;;;;;;;;;;;;;;;;5043056;28;19979;-92
2022/01/08 06:14:13;;;;;;;;;;;;;;;;;;5025717;28;19948;-91
2022/01/08 06:16:39;;;;;;;;;;;;;;;;;;5041524;28;19925;-91
2022/01/08 06:19:05;;;;;;;;;;;;;;;;;;5043337;28;19925;-93
2022/01/08 06:21:31;;;;;;;;;;;;;;;;;;5022948;28;19968;-92
2022/01/08 06:23:58;;;;;;;;;;;;;;;;;;5022037;28;19933;-93
2022/01/08 06:26:24;;;;;;;;;;;;;;;;;;5039947;28;19933;-91
2022/01/08 06:28:51;;;;;;;;;;;;;;;;;;5044336;28;19929;-92
2022/01/08 06:31:17;;;;;;;;;;;;;;;;;;5041455;28;19929;-91
2022/01/08 06:33:44;;;;;;;;;;;;;;;;;;5042421;28;19925;-92
2022/01/08 06:36:10;;;;;;;;;;;;;;;;;;5042260;28;19978;-92
2022/01/08 06:38:36;;;;;;;;;;;;;;;;;;5042510;28;19932;-92
2022/01/08 06:41:02;;;;;;;;;;;;;;;;;;5042038;28;19982;-92
2022/01/08 06:43:29;;;;;;;;;;;;;;;;;;5041557;28;19929;-92
2022/01/08 06:45:55;;;;;;;;;;;;;;;;;;5040857;28;19948;-91
2022/01/08 06:48:21;;;;;;;;;;;;;;;;;;5041565;28;19937;-92
2022/01/08 06:50:47;;;;;;;;;;;;;;;;;;5041870;28;19933;-92
2022/01/08 06:53:14;;;;;;;;;;;;;;;;;;5041491;28;19959;-92
2022/01/08 06:55:40;;;;;;;;;;;;;;;;;;5040426;28;19925;-92
2022/01/08 06:58:06;;;;;;;;;;;;;;;;;;5032413;28;19926;-91
2022/01/08 07:00:32;;;;;;;;;;;;;;;;;;5026222;28;19925;-92
2022/01/08 07:03:00;;;;;;;;;;;;;;;;;;5039699;28;19956;-92
2022/01/08 07:05:26;;;;;;;;;;;;;;;;;;5041353;28;20356;-91
2022/01/08 07:07:52;;;;;;;;;;;;;;;;;;5041308;28;20612;-92
2022/01/08 07:10:18;;;;;;;;;;;;;;;;;;5036679;28;21192;-91
2022/01/08 07:12:45;;;;;;;;;;;;;;;;;;5032188;28;20300;-91
2022/01/08 07:15:12;;;;;;;;;;;;;;;;;;5020460;28;20687;-91
2022/01/08 07:17:39;;;;;;;;;;;;;;;;;;5018426;28;19925;-91
2022/01/08 07:20:05;;;;;;;;;;;;;;;;;;5020051;28;19925;-90
2022/01/08 07:22:31;;;;;;;;;;;;;;;;;;5034434;28;19925;-90
2022/01/08 07:24:57;;;;;;;;;;;;;;;;;;5039507;28;19960;-90
2022/01/08 07:27:24;;;;;;;;;;;;;;;;;;5040050;28;19979;-89
2022/01/08 07:29:50;;;;;;;;;;;;;;;;;;5035257;28;19925;-90
2022/01/08 07:32:16;;;;;;;;;;;;;;;;;;5019982;28;19956;-90
2022/01/08 07:34:42;;;;;;;;;;;;;;;;;;5021918;28;19926;-89
2022/01/08 07:37:08;;;;;;;;;;;;;;;;;;5042861;28;19933;-89
2022/01/08 07:39:35;;;;;;;;;;;;;;;;;;5044825;28;19948;-89
2022/01/08 07:42:01;;;;;;;;;;;;;;;;;;5044093;28;19925;-89
2022/01/08 07:44:27;;;;;;;;;;;;;;;;;;5044766;28;20020;-90
2022/01/08 07:46:53;;;;;;;;;;;;;;;;;;5044109;28;19925;-89
2022/01/08 07:49:20;;;;;;;;;;;;;;;;;;5043226;28;19929;-89
2022/01/08 07:51:46;;;;;;;;;;;;;;;;;;5042941;28;19928;-89
2022/01/08 07:54:12;;;;;;;;;;;;;;;;;;5042868;28;19929;-90
2022/01/08 07:56:38;;;;;;;;;;;;;;;;;;5043439;28;19928;-90
2022/01/08 07:59:04;;;;;;;;;;;;;;;;;;5027826;28;19953;-90
2022/01/08 08:01:31;;;;;;;;;;;;;;;;;;5027712;28;19929;-90
2022/01/08 08:03:57;;;;;;;;;;;;;;;;;;5025416;28;19937;-90
2022/01/08 08:06:23;;;;;;;;;;;;;;;;;;5037904;28;19936;-90
2022/01/08 08:08:50;;;;;;;;;;;;;;;;;;5045244;28;19925;-90
2022/01/08 08:11:16;;;;;;;;;;;;;;;;;;5039425;28;19929;-89
2022/01/08 08:13:42;;;;;;;;;;;;;;;;;;5035642;28;19925;-90
2022/01/08 08:16:08;;;;;;;;;;;;;;;;;;5033560;28;19929;-90
2022/01/08 08:18:34;;;;;;;;;;;;;;;;;;5040609;28;19951;-90
2022/01/08 08:21:01;;;;;;;;;;;;;;;;;;5033428;28;19930;-90
2022/01/08 08:23:27;;;;;;;;;;;;;;;;;;5025238;28;19930;-90
2022/01/08 08:25:53;;;;;;;;;;;;;;;;;;5034973;28;19929;-90
2022/01/08 08:28:19;;;;;;;;;;;;;;;;;;5043344;28;19929;-91
2022/01/08 08:30:46;;;;;;;;;;;;;;;;;;5041653;28;19952;-90
2022/01/08 08:33:12;;;;;;;;;;;;;;;;;;5042534;28;19937;-90
2022/01/08 08:35:39;;;;;;;;;;;;;;;;;;5043083;28;19933;-91
2022/01/08 08:38:05;;;;;;;;;;;;;;;;;;5041058;28;19929;-91
2022/01/08 08:40:31;;;;;;;;;;;;;;;;;;5030314;28;19952;-90
2022/01/08 08:42:57;;;;;;;;;;;;;;;;;;5044439;28;19929;-91
2022/01/08 08:45:23;;;;;;;;;;;;;;;;;;5043605;28;19925;-91
2022/01/08 08:47:50;;;;;;;;;;;;;;;;;;5041760;28;19929;-90
2022/01/08 08:50:16;;;;;;;;;;;;;;;;;;5024983;28;19972;-89
2022/01/08 08:52:42;;;;;;;;;;;;;;;;;;5043843;28;19952;-89
2022/01/08 08:55:08;;;;;;;;;;;;;;;;;;5042757;28;19929;-89
2022/01/08 08:57:35;;;;;;;;;;;;;;;;;;5037329;28;19952;-89
2022/01/08 09:00:02;;;;;;;;;;;;;;;;;;5019593;28;19937;-89
2022/01/08 09:02:28;;;;;;;;;;;;;;;;;;5042020;28;19929;-89
2022/01/08 09:04:54;;;;;;;;;;;;;;;;;;5029404;28;19933;-89
2022/01/08 09:07:20;;;;;;;;;;;;;;;;;;5032350;28;19984;-89
2022/01/08 09:09:47;;;;;;;;;;;;;;;;;;5022940;28;19941;-89
2022/01/08 09:12:15;;;;;;;;;;;;;;;;;;5039107;28;19937;-88
2022/01/08 09:14:41;;;;;;;;;;;;;;;;;;5042115;28;19925;-88
2022/01/08 09:17:08;;;;;;;;;;;;;;;;;;5042418;28;19933;-89
2022/01/08 09:19:34;;;;;;;;;;;;;;;;;;5042324;28;19925;-89
2022/01/08 09:22:01;;;;;;;;;;;;;;;;;;5041995;28;19929;-89
2022/01/08 09:24:27;;;;;;;;;;;;;;;;;;5039940;28;19983;-92
2022/01/08 09:26:54;;;;;;;;;;;;;;;;;;5035672;28;19933;-90
2022/01/08 09:29:20;;;;;;;;;;;;;;;;;;5038701;28;19926;-89
2022/01/08 09:31:46;;;;;;;;;;;;;;;;;;5033539;28;19976;-89
2022/01/08 09:34:12;;;;;;;;;;;;;;;;;;5039656;28;19933;-93
2022/01/08 09:36:39;;;;;;;;;;;;;;;;;;5037580;28;19929;-91
2022/01/08 09:39:05;;;;;;;;;;;;;;;;;;5039552;28;19929;-90
2022/01/08 09:41:31;;;;;;;;;;;;;;;;;;5042033;28;19929;-90
2022/01/08 09:43:57;;;;;;;;;;;;;;;;;;5041522;28;19959;-90
2022/01/08 09:46:23;;;;;;;;;;;;;;;;;;5040885;28;19929;-90
2022/01/08 09:48:50;;;;;;;;;;;;;;;;;;5039732;28;19955;-90
2022/01/08 09:51:16;;;;;;;;;;;;;;;;;;5037673;28;19929;-90
2022/01/08 09:53:43;;;;;;;;;;;;;;;;;;5038139;28;19929;-91
2022/01/08 09:56:09;;;;;;;;;;;;;;;;;;5037799;28;19940;-90
2022/01/08 09:58:35;;;;;;;;;;;;;;;;;;5037916;28;19925;-91
2022/01/08 10:01:01;;;;;;;;;;;;;;;;;;5037691;28;19929;-91
2022/01/08 10:03:31;;;;;;;;;;;;;;;;;;5039292;28;19925;-91
2022/01/08 10:05:58;;;;;;;;;;;;;;;;;;5042067;28;19952;-91
2022/01/08 10:08:24;;;;;;;;;;;;;;;;;;5042681;28;19953;-91
2022/01/08 10:10:51;;;;;;;;;;;;;;;;;;5042190;28;20391;-91
2022/01/08 10:13:17;;;;;;;;;;;;;;;;;;5035534;28;19914;-91
2022/01/08 10:18:27;;;;;;;;;;;;;;;;;;5039797;28;19972;-91
2022/01/08 10:20:55;;;;;;;;;;;;;;;;;;5038976;28;19948;-91
2022/01/08 10:23:21;;;;;;;;;;;;;;;;;;5039730;28;19944;-91
2022/01/08 10:25:47;;;;;;;;;;;;;;;;;;5041753;28;19936;-91
2022/01/08 10:28:13;;;;;;;;;;;;;;;;;;5024666;28;19956;-90
2022/01/08 10:30:40;;;;;;;;;;;;;;;;;;5020154;28;19925;-91
2022/01/08 10:33:06;;;;;;;;;;;;;;;;;;5036828;28;19925;-90
2022/01/08 10:35:32;;;;;;;;;;;;;;;;;;5039867;28;19925;-91
2022/01/08 10:37:58;;;;;;;;;;;;;;;;;;5040426;28;19926;-91
2022/01/08 10:40:25;;;;;;;;;;;;;;;;;;5041596;28;19929;-91
2022/01/08 10:42:51;;;;;;;;;;;;;;;;;;5035715;28;19929;-92
2022/01/08 10:45:21;;;;;;;;;;;;;;;;;;5019602;28;19937;-91
2022/01/08 10:47:47;;;;;;;;;;;;;;;;;;5032018;28;19929;-92
2022/01/08 10:50:13;;;;;;;;;;;;;;;;;;5036294;28;19952;-92
2022/01/08 10:52:40;;;;;;;;;;;;;;;;;;5040534;28;19959;-92
2022/01/08 10:55:06;;;;;;;;;;;;;;;;;;5040531;28;19933;-92
2022/01/08 10:57:32;;;;;;;;;;;;;;;;;;5040033;28;19925;-92
2022/01/08 10:59:58;;;;;;;;;;;;;;;;;;5036260;28;19952;-92
2022/01/08 11:02:28;;;;;;;;;;;;;;;;;;5038361;28;19948;-92
2022/01/08 11:04:54;;;;;;;;;;;;;;;;;;5040672;28;19948;-91
2022/01/08 11:07:21;;;;;;;;;;;;;;;;;;5041746;28;19988;-92
2022/01/08 11:09:47;;;;;;;;;;;;;;;;;;5040694;28;20020;-92
2022/01/08 11:12:14;;;;;;;;;;;;;;;;;;5039682;28;19952;-92
2022/01/08 11:17:30;;;;;;;;;;;;;;;;;;5033223;28;20024;-92
2022/01/08 11:19:56;;;;;;;;;;;;;;;;;;5040103;28;20023;-92
2022/01/08 11:22:22;;;;;;;;;;;;;;;;;;5038492;28;19933;-93
2022/01/08 11:24:48;;;;;;;;;;;;;;;;;;5040991;28;19929;-92
2022/01/08 11:27:15;;;;;;;;;;;;;;;;;;5040555;28;19929;-93
2022/01/08 11:29:41;;;;;;;;;;;;;;;;;;5039587;28;19929;-92
2022/01/08 11:32:07;;;;;;;;;;;;;;;;;;5039583;28;19952;-93
2022/01/08 11:34:34;;;;;;;;;;;;;;;;;;5040312;28;19925;-92
2022/01/08 11:37:00;;;;;;;;;;;;;;;;;;5041096;28;19926;-92
2022/01/08 11:39:26;;;;;;;;;;;;;;;;;;5040901;28;20459;-92
2022/01/08 11:41:52;;;;;;;;;;;;;;;;;;5040592;28;19925;-93
2022/01/08 11:44:19;;;;;;;;;;;;;;;;;;5024020;28;19933;-92
2022/01/08 11:46:45;;;;;;;;;;;;;;;;;;5025008;28;19929;-92
2022/01/08 11:49:11;;;;;;;;;;;;;;;;;;5042671;28;19928;-92
2022/01/08 11:51:37;;;;;;;;;;;;;;;;;;5042668;28;19925;-92
2022/01/08 11:54:06;;;;;;;;;;;;;;;;;;5041725;28;19929;-92
2022/01/08 11:56:32;;;;;;;;;;;;;;;;;;5041209;28;19925;-93
2022/01/08 11:58:58;;;;;;;;;;;;;;;;;;5040032;28;19967;-92
2022/01/08 12:01:25;;;;;;;;;;;;;;;;;;5039943;28;19925;-91
2022/01/08 12:03:51;;;;;;;;;;;;;;;;;;5037797;28;19951;-91
2022/01/08 12:06:17;;;;;;;;;;;;;;;;;;5039964;28;19964;-92
2022/01/08 12:08:46;;;;;;;;;;;;;;;;;;5041202;28;19956;-92
2022/01/08 12:11:12;;;;;;;;;;;;;;;;;;5040292;28;19944;-91
2022/01/08 12:13:38;;;;;;;;;;;;;;;;;;5039965;28;19951;-91
2022/01/08 12:16:05;;;;;;;;;;;;;;;;;;5039801;28;19925;-91
2022/01/08 12:18:31;;;;;;;;;;;;;;;;;;5039813;28;19948;-91
2022/01/08 12:20:57;;;;;;;;;;;;;;;;;;5042068;28;19925;-91
2022/01/08 12:23:23;;;;;;;;;;;;;;;;;;5043861;28;19947;-91
2022/01/08 12:25:49;;;;;;;;;;;;;;;;;;5043896;28;19929;-91
2022/01/08 12:28:16;;;;;;;;;;;;;;;;;;5034889;28;19929;-91
2022/01/08 12:30:42;;;;;;;;;;;;;;;;;;5023707;28;19930;-92
2022/01/08 12:33:08;;;;;;;;;;;;;;;;;;5035801;28;19929;-91
2022/01/08 12:35:37;;;;;;;;;;;;;;;;;;5043055;28;19948;-91
2022/01/08 12:38:05;;;;;;;;;;;;;;;;;;5043132;28;19929;-91
2022/01/08 12:40:31;;;;;;;;;;;;;;;;;;5043942;28;20414;-91
2022/01/08 12:42:57;;;;;;;;;;;;;;;;;;5043634;28;20409;-91
2022/01/08 12:45:23;;;;;;;;;;;;;;;;;;5041814;28;20486;-91
2022/01/08 12:47:49;;;;;;;;;;;;;;;;;;5041158;28;19937;-91
2022/01/08 12:50:16;;;;;;;;;;;;;;;;;;5042121;28;20262;-91
2022/01/08 12:52:42;;;;;;;;;;;;;;;;;;5039150;28;20339;-90
2022/01/08 12:55:08;;;;;;;;;;;;;;;;;;5043875;28;20056;-90
2022/01/08 12:57:34;;;;;;;;;;;;;;;;;;5039726;28;20435;-91
2022/01/08 13:00:01;;;;;;;;;;;;;;;;;;5022024;28;19934;-91
2022/01/08 13:02:27;;;;;;;;;;;;;;;;;;5027170;28;19975;-90
2022/01/08 13:04:53;;;;;;;;;;;;;;;;;;5039232;28;19929;-91
2022/01/08 13:07:19;;;;;;;;;;;;;;;;;;5036991;28;19982;-90
2022/01/08 13:09:46;;;;;;;;;;;;;;;;;;5040917;28;19928;-90
2022/01/08 13:12:12;;;;;;;;;;;;;;;;;;5043582;28;19995;-90
2022/01/08 13:14:38;;;;;;;;;;;;;;;;;;5043086;28;19928;-91
2022/01/08 13:17:05;;;;;;;;;;;;;;;;;;5040985;28;19929;-93
2022/01/08 13:19:31;;;;;;;;;;;;;;;;;;5039863;28;19951;-91
2022/01/08 13:21:57;;;;;;;;;;;;;;;;;;5043117;28;19929;-93
2022/01/08 13:24:24;;;;;;;;;;;;;;;;;;5041544;28;19928;-92
2022/01/08 13:26:50;;;;;;;;;;;;;;;;;;5037614;28;19929;-92
2022/01/08 13:29:16;;;;;;;;;;;;;;;;;;5017493;28;19952;-92
2022/01/08 13:31:42;;;;;;;;;;;;;;;;;;5013545;28;19938;-90
2022/01/08 13:34:08;;;;;;;;;;;;;;;;;;5030373;28;19951;-91
2022/01/08 13:36:35;;;;;;;;;;;;;;;;;;5032763;28;20250;-91
2022/01/08 13:39:01;;;;;;;;;;;;;;;;;;5034518;28;19959;-91
2022/01/08 13:41:27;;;;;;;;;;;;;;;;;;5040263;28;20080;-93
2022/01/08 13:43:53;;;;;;;;;;;;;;;;;;5039693;28;19929;-93
2022/01/08 13:46:20;;;;;;;;;;;;;;;;;;5040015;28;19925;-92
2022/01/08 13:48:46;;;;;;;;;;;;;;;;;;5040641;28;20011;-93
2022/01/08 13:51:12;;;;;;;;;;;;;;;;;;5042293;28;19949;-93
2022/01/08 13:53:39;;;;;;;;;;;;;;;;;;5042179;28;20331;-95
2022/01/08 13:56:05;;;;;;;;;;;;;;;;;;5042549;28;19925;-93
2022/01/08 13:58:31;;;;;;;;;;;;;;;;;;5034867;28;20003;-92
2022/01/08 14:00:57;;;;;;;;;;;;;;;;;;5022531;28;20052;-93
2022/01/08 14:03:23;;;;;;;;;;;;;;;;;;5032440;28;20008;-92
2022/01/08 14:05:50;;;;;;;;;;;;;;;;;;5042484;28;19937;-93
2022/01/08 14:08:16;;;;;;;;;;;;;;;;;;5044248;28;19928;-93
2022/01/08 14:10:42;;;;;;;;;;;;;;;;;;5042884;28;19925;-91
2022/01/08 14:13:09;;;;;;;;;;;;;;;;;;5043203;28;19925;-91
2022/01/08 14:15:35;;;;;;;;;;;;;;;;;;5041401;28;19948;-91
2022/01/08 14:18:01;;;;;;;;;;;;;;;;;;5040124;28;19925;-90
2022/01/08 14:20:27;;;;;;;;;;;;;;;;;;5040790;28;19925;-91
2022/01/08 14:22:54;;;;;;;;;;;;;;;;;;5038023;28;19951;-90
2022/01/08 14:25:20;;;;;;;;;;;;;;;;;;5035596;28;19933;-90
2022/01/08 14:27:46;;;;;;;;;;;;;;;;;;5037783;28;19960;-90
2022/01/08 14:30:13;;;;;;;;;;;;;;;;;;5042234;28;19952;-90
2022/01/08 14:32:39;;;;;;;;;;;;;;;;;;5042241;28;19929;-90
2022/01/08 14:35:07;;;;;;;;;;;;;;;;;;5040009;28;19983;-90
2022/01/08 14:37:33;;;;;;;;;;;;;;;;;;5037280;28;19929;-90
2022/01/08 14:40:02;;;;;;;;;;;;;;;;;;5035120;28;19982;-91
2022/01/08 14:42:28;;;;;;;;;;;;;;;;;;5034580;28;19925;-90
2022/01/08 14:44:55;;;;;;;;;;;;;;;;;;5018562;28;19983;-91
2022/01/08 14:47:21;;;;;;;;;;;;;;;;;;5018582;28;19936;-91
2022/01/08 14:49:47;;;;;;;;;;;;;;;;;;5029883;28;19929;-91
2022/01/08 14:52:13;;;;;;;;;;;;;;;;;;5019739;28;19980;-90
2022/01/08 14:54:40;;;;;;;;;;;;;;;;;;5039242;28;19925;-90
2022/01/08 14:57:06;;;;;;;;;;;;;;;;;;5041638;28;19983;-91
2022/01/08 14:59:32;;;;;;;;;;;;;;;;;;5040359;28;19929;-91
2022/01/08 15:01:58;;;;;;;;;;;;;;;;;;5040217;28;19995;-91
2022/01/08 15:04:25;;;;;;;;;;;;;;;;;;5040543;28;19929;-91
2022/01/08 15:06:53;;;;;;;;;;;;;;;;;;5040445;28;19929;-91
2022/01/08 15:09:19;;;;;;;;;;;;;;;;;;5040542;28;19929;-91
2022/01/08 15:11:45;;;;;;;;;;;;;;;;;;5041037;28;19929;-90
2022/01/08 15:14:11;;;;;;;;;;;;;;;;;;5039474;28;19937;-92
2022/01/08 15:16:39;;;;;;;;;;;;;;;;;;5041451;28;19991;-91
2022/01/08 15:19:05;;;;;;;;;;;;;;;;;;5040601;28;19929;-91
2022/01/08 15:21:31;;;;;;;;;;;;;;;;;;5039773;28;19929;-92
2022/01/08 15:23:57;;;;;;;;;;;;;;;;;;5039851;28;19929;-92
2022/01/08 15:26:23;;;;;;;;;;;;;;;;;;5037323;28;19983;-93
2022/01/08 15:28:50;;;;;;;;;;;;;;;;;;5031559;28;19928;-92
2022/01/08 15:31:17;;;;;;;;;;;;;;;;;;5037969;28;19971;-94
2022/01/08 15:33:43;;;;;;;;;;;;;;;;;;5038643;28;19925;-94
2022/01/08 15:36:10;;;;;;;;;;;;;;;;;;5040364;28;19925;-95
2022/01/08 15:38:36;;;;;;;;;;;;;;;;;;5039709;28;19956;-95
2022/01/08 15:41:03;;;;;;;;;;;;;;;;;;5039455;28;19948;-95
2022/01/08 15:43:30;;;;;;;;;;;;;;;;;;5033639;28;19955;-94
2022/01/08 15:45:56;;;;;;;;;;;;;;;;;;5038276;28;19971;-95
2022/01/08 15:48:23;;;;;;;;;;;;;;;;;;5039675;28;19929;-95
2022/01/08 15:50:49;;;;;;;;;;;;;;;;;;5041075;28;19929;-95
2022/01/08 15:53:15;;;;;;;;;;;;;;;;;;5040708;28;19929;-95
2022/01/08 15:55:42;;;;;;;;;;;;;;;;;;5040961;28;20454;-96
2022/01/08 15:58:08;;;;;;;;;;;;;;;;;;5043773;28;19929;-96
2022/01/08 16:00:34;;;;;;;;;;;;;;;;;;5044279;28;19932;-94
2022/01/08 16:03:01;;;;;;;;;;;;;;;;;;5044450;28;19925;-95
2022/01/08 16:05:29;;;;;;;;;;;;;;;;;;5044189;28;19925;-94
2022/01/08 16:07:56;;;;;;;;;;;;;;;;;;5044406;28;19936;-95
2022/01/08 16:10:22;;;;;;;;;;;;;;;;;;5044560;28;19933;-95
2022/01/08 16:12:52;;;;;;;;;;;;;;;;;;5039186;28;19930;-95
2022/01/08 16:15:20;;;;;;;;;;;;;;;;;;5040506;28;19932;-96
2022/01/08 16:17:46;;;;;;;;;;;;;;;;;;5042107;28;19925;-96
2022/01/08 16:20:13;;;;;;;;;;;;;;;;;;5042190;28;19929;-96
2022/01/08 16:22:39;;;;;;;;;;;;;;;;;;5042099;28;19985;-94
2022/01/08 16:25:05;;;;;;;;;;;;;;;;;;5043502;28;20471;-95
2022/01/08 16:27:31;;;;;;;;;;;;;;;;;;5040860;28;20412;-96
2022/01/08 16:29:58;;;;;;;;;;;;;;;;;;5037968;28;19991;-95
2022/01/08 16:32:24;;;;;;;;;;;;;;;;;;5042765;28;19929;-96
2022/01/08 16:34:50;;;;;;;;;;;;;;;;;;5042979;28;19955;-96
2022/01/08 16:37:16;;;;;;;;;;;;;;;;;;5043150;28;19948;-96
2022/01/08 16:39:43;;;;;;;;;;;;;;;;;;5043354;28;19992;-96
2022/01/08 16:42:09;;;;;;;;;;;;;;;;;;5044064;28;19933;-96
2022/01/08 16:44:35;;;;;;;;;;;;;;;;;;5034096;28;19953;-96
2022/01/08 16:47:03;;;;;;;;;;;;;;;;;;5025412;28;19925;-96
2022/01/08 16:49:29;;;;;;;;;;;;;;;;;;5026498;28;19929;-96
2022/01/08 16:51:56;;;;;;;;;;;;;;;;;;5025130;28;19976;-96
2022/01/08 16:54:22;;;;;;;;;;;;;;;;;;5013633;28;19929;-96
2022/01/08 16:56:48;;;;;;;;;;;;;;;;;;5040702;28;19929;-95
2022/01/08 16:59:17;;;;;;;;;;;;;;;;;;5024636;28;19928;-96
2022/01/08 17:01:43;;;;;;;;;;;;;;;;;;5043985;28;19935;-96